Time;durP1;ratioP1;P1;durP2;ratioP2;P2;SDS_P1;SDS_P2;PMS_P1;PMS_P2;Temp;Humidity;BMP_temperature;BMP_pressure;BME280_temperature;BME280_humidity;BME280_pressure;Samples;Min_cycle;Max_cycle;Signal;HPM_P1;HPM_P2
2022/02/11 02:50:25;;;;;;;47.33;30.80;;;128.30;2252.80;;;;;;5114937;23;20060;-84
2022/02/11 02:59:02;;;;;;;47.67;30.27;;;128.40;2252.80;;;;;;4961876;29;20512;-85
2022/02/11 03:53:16;;;;;;;40.50;25.83;;;128.40;2252.80;;;;;;4900446;29;20041;-85
2022/02/11 04:22:57;;;;;;;38.13;24.20;;;128.40;2252.80;;;;;;4882380;29;20070;-84
2022/02/11 04:26:16;;;;;;;36.38;23.50;;;128.40;2252.80;;;;;;4871281;29;20057;-85
2022/02/11 04:55:38;;;;;;;41.83;23.45;;;128.40;2252.80;;;;;;4814129;29;20054;-84
2022/02/11 05:01:19;;;;;;;40.20;24.35;;;128.40;2252.80;;;;;;4827398;29;20091;-83
2022/02/11 05:03:48;;;;;;;42.75;24.83;;;128.40;2252.80;;;;;;4784817;29;20023;-83
2022/02/11 05:06:23;;;;;;;43.70;28.08;;;128.30;2252.80;;;;;;4811419;29;20070;-83
2022/02/11 05:09:10;;;;;;;50.05;29.77;;;128.30;2252.80;;;;;;4899828;29;20037;-83
2022/02/11 05:11:56;;;;;;;58.53;33.10;;;128.20;2252.80;;;;;;4901217;29;20033;-83
2022/02/11 05:14:26;;;;;;;74.72;39.63;;;128.20;2252.80;;;;;;4896438;29;20021;-83
2022/02/11 05:16:57;;;;;;;78.78;42.63;;;128.10;2252.80;;;;;;4899574;29;20068;-84
2022/02/11 05:19:34;;;;;;;96.78;47.38;;;128.10;2252.80;;;;;;4899660;29;20029;-84
2022/02/11 05:22:10;;;;;;;85.65;44.65;;;128.00;2252.80;;;;;;4884155;29;20013;-84
2022/02/11 05:24:41;;;;;;;78.10;41.42;;;128.00;2252.80;;;;;;4899262;29;20033;-84
2022/02/11 05:27:18;;;;;;;59.00;34.83;;;128.00;2252.80;;;;;;4896188;29;20037;-84
2022/02/11 05:29:46;;;;;;;51.80;31.90;;;102.40;2227.20;;;;;;4932740;29;20046;-87
2022/02/11 05:32:19;;;;;;;43.90;28.02;;;103.30;2227.20;;;;;;4901284;29;20192;-84
2022/02/11 05:34:50;;;;;;;51.30;29.90;;;103.30;2227.20;;;;;;4899670;29;20041;-84
2022/02/11 05:37:23;;;;;;;46.25;28.30;;;103.20;2227.20;;;;;;4884252;29;20041;-83
2022/02/11 05:39:49;;;;;;;;;;;103.20;2227.20;;;;;;4884482;29;20105;-83
2022/02/11 05:42:19;;;;;;;52.25;32.17;;;77.60;2227.20;;;;;;4868980;29;19921;-83
2022/02/11 05:45:09;;;;;;;46.70;32.03;;;103.20;2227.20;;;;;;4884594;29;20053;-83
2022/02/11 05:47:36;;;;;;;49.72;32.10;;;103.10;2227.20;;;;;;4883443;29;20036;-83
2022/02/11 05:50:04;;;;;;;47.58;30.90;;;103.10;2227.20;;;;;;4883817;29;20049;-83
2022/02/11 05:52:36;;;;;;;57.08;30.95;;;103.10;2227.20;;;;;;4880995;29;20056;-84
2022/02/11 05:55:06;;;;;;;50.13;29.33;;;103.10;2227.20;;;;;;4884893;29;20078;-84
2022/02/11 05:57:55;;;;;;;47.33;30.45;;;103.10;2227.20;;;;;;4860908;29;20062;-84
2022/02/11 08:47:54;;;;;;;41.22;23.00;;;256.70;2252.80;;;;;;4918631;29;20056;-94
2022/02/11 08:50:24;;;;;;;46.17;24.65;;;281.70;2278.40;;;;;;4891389;29;20474;-93
2022/02/11 08:52:50;;;;;;;39.50;22.48;;;282.00;2278.40;;;;;;4885060;29;20032;-95
2022/02/11 08:55:42;;;;;;;43.80;22.95;;;282.30;2278.40;;;;;;4907654;29;20039;-96
2022/02/11 08:58:09;;;;;;;42.78;24.35;;;307.20;2304.00;;;;;;4902515;29;20039;-95
2022/02/11 09:00:44;;;;;;;38.88;19.23;;;307.50;2304.00;;;;;;4902359;29;20104;-96
2022/02/11 09:03:10;;;;;;;32.53;17.10;;;;;;;;;;4898180;29;20024;-95
2022/02/11 09:05:40;;;;;;;31.13;16.40;;;;;;;;;;4934228;23;20416;-96
2022/02/11 09:08:06;;;;;;;26.90;15.05;;;333.30;2201.60;;;;;;4906106;29;20064;-93
2022/02/11 09:10:32;;;;;;;31.63;17.15;;;461.50;1561.60;;;;;;4901704;29;20436;-96
2022/02/11 09:13:00;;;;;;;25.67;15.77;;;589.20;1152.00;;;;;;4887154;29;20040;-91
2022/02/11 09:15:27;;;;;;;24.52;14.52;;;640.80;947.20;;;;;;4892680;29;20041;-92
2022/02/11 09:17:54;;;;;;;24.63;16.27;;;691.20;870.40;;;;;;4899296;29;20099;-88
2022/02/11 09:20:21;;;;;;;28.23;15.50;;;691.90;819.20;;;;;;4901149;29;20035;-85
2022/02/11 09:22:48;;;;;;;28.63;16.45;;;717.60;793.60;;;;;;4901039;29;20031;-90
2022/02/11 09:25:15;;;;;;;26.00;15.18;;;768.30;793.60;;;;;;4901190;29;20079;-91
2022/02/11 09:27:43;;;;;;;20.20;12.43;;;743.10;793.60;;;;;;4900800;29;20490;-89
2022/02/11 09:30:16;;;;;;;19.45;13.40;;;743.00;793.60;;;;;;4894629;29;20377;-86
2022/02/11 09:32:46;;;;;;;22.02;13.55;;;793.60;793.60;;;;;;4901374;29;20055;-91
2022/02/11 09:35:14;;;;;;;19.70;11.10;;;819.40;716.80;;;;;;4900514;29;20131;-87
2022/02/11 09:37:41;;;;;;;16.60;8.32;;;819.50;716.80;;;;;;4886649;29;20063;-87
2022/02/11 09:40:10;;;;;;;18.90;8.23;;;819.20;716.80;;;;;;4882261;29;20036;-88
2022/02/11 09:42:36;;;;;;;13.55;7.65;;;819.20;716.80;;;;;;4898958;29;20032;-89
2022/02/11 09:45:06;;;;;;;15.60;8.18;;;819.80;665.60;;;;;;4882076;29;20024;-89
2022/02/11 09:47:35;;;;;;;18.88;8.45;;;819.70;665.60;;;;;;4882057;29;20028;-89
2022/02/11 09:50:01;;;;;;;15.02;7.30;;;844.80;691.20;;;;;;4887664;29;20035;-92
2022/02/11 09:52:28;;;;;;;13.43;6.25;;;819.20;691.20;;;;;;4893947;29;20147;-93
2022/02/11 09:55:31;;;;;;;13.43;6.85;;;819.90;665.60;;;;;;4894011;29;20031;-92
2022/02/11 09:57:44;;;;;;;11.35;6.20;;;844.80;691.20;;;;;;4910503;29;20041;-92
2022/02/11 10:00:11;;;;;;;13.75;6.95;;;844.90;691.20;;;;;;4904884;29;20641;-89
2022/02/11 10:02:51;;;;;;;21.90;7.57;;;845.20;665.60;;;;;;4919966;29;20055;-91
2022/02/11 10:05:32;;;;;;;9.45;5.85;;;845.30;665.60;;;;;;4900875;29;20096;-92
2022/02/11 10:07:59;;;;;;;13.52;6.43;;;845.70;640.00;;;;;;4893263;29;20069;-90
2022/02/11 10:10:39;;;;;;;12.55;7.07;;;870.90;614.40;;;;;;4895011;29;20482;-91
2022/02/11 10:13:25;;;;;;;12.20;7.03;;;896.50;588.80;;;;;;4905932;29;20470;-91
2022/02/11 10:15:56;;;;;;;10.32;5.30;;;896.90;588.80;;;;;;4898163;29;20036;-90
2022/02/11 10:18:29;;;;;;;8.85;5.63;;;896.50;563.20;;;;;;4890569;29;20176;-92
2022/02/11 10:21:04;;;;;;;16.50;5.50;;;871.20;588.80;;;;;;4907432;29;20363;-88
2022/02/11 10:23:32;;;;;;;9.57;5.30;;;845.30;640.00;;;;;;4885074;29;20029;-89
2022/02/11 10:26:06;;;;;;;13.05;6.72;;;819.70;665.60;;;;;;4885373;29;20181;-94
2022/02/11 10:28:40;;;;;;;13.27;6.50;;;768.30;716.80;;;;;;4885839;29;20033;-90
2022/02/11 10:31:13;;;;;;;18.42;6.32;;;768.20;716.80;;;;;;4886361;29;20032;-96
2022/02/11 10:33:51;;;;;;;12.57;5.80;;;768.70;691.20;;;;;;4890400;29;20037;-93
2022/02/11 10:36:26;;;;;;;10.90;5.90;;;717.00;768.00;;;;;;4897285;29;20036;-92
2022/02/11 10:39:04;;;;;;;11.00;6.47;;;691.80;742.40;;;;;;4919370;29;20028;-90
2022/02/11 10:41:32;;;;;;;14.23;5.70;;;614.40;921.60;;;;;;4895501;29;20045;-93
2022/02/11 10:44:04;;;;;;;14.40;5.95;;;589.50;921.60;;;;;;4884524;29;20393;-94
2022/02/11 10:46:50;;;;;;;13.35;5.60;;;588.80;998.40;;;;;;4895185;29;20394;-93
2022/02/11 10:49:17;;;;;;;12.57;6.10;;;537.80;1075.20;;;;;;4894947;29;20029;-94
2022/02/11 10:51:49;;;;;;;14.18;5.90;;;563.70;1024.00;;;;;;4895910;29;20033;-96
2022/02/11 10:54:49;;;;;;;14.65;6.45;;;588.80;998.40;;;;;;4894395;29;20481;-92
2022/02/11 10:57:17;;;;;;;17.00;6.22;;;614.50;947.20;;;;;;4902822;29;20020;-91
2022/02/11 10:59:45;;;;;;;13.20;5.63;;;614.50;921.60;;;;;;4895468;29;20477;-95
2022/02/11 11:02:13;;;;;;;17.63;6.00;;;589.50;947.20;;;;;;4884394;29;20436;-93
2022/02/11 11:04:39;;;;;;;20.80;7.22;;;614.40;921.60;;;;;;4884388;29;20036;-94
2022/02/11 11:07:07;;;;;;;17.63;4.35;;;563.70;998.40;;;;;;4890463;29;20032;-96
2022/02/11 11:09:36;;;;;;;20.00;6.45;;;588.80;972.80;;;;;;4903194;29;20024;-95
2022/02/11 11:12:03;;;;;;;12.65;4.90;;;;;;;;;;4895844;29;20029;-96
2022/02/11 11:14:30;;;;;;;22.88;10.52;;;563.70;1049.60;;;;;;4897478;29;20110;-92
2022/02/11 11:17:01;;;;;;;17.83;6.32;;;563.90;1024.00;;;;;;4885062;29;20063;-94
2022/02/11 11:19:35;;;;;;;13.13;6.00;;;614.60;972.80;;;;;;4891879;29;20039;-94
2022/02/11 11:22:11;;;;;;;19.90;6.20;;;666.00;819.20;;;;;;4909947;29;20119;-95
2022/02/11 11:24:57;;;;;;;10.45;4.88;;;640.40;844.80;;;;;;4886888;29;20060;-96
2022/02/11 11:27:53;;;;;;;22.65;7.88;;;589.20;947.20;;;;;;4906592;29;20032;-96
2022/02/11 11:30:26;;;;;;;12.07;4.85;;;563.40;1203.20;;;;;;4910556;29;20016;-96
2022/02/11 11:33:07;;;;;;;12.07;5.75;;;564.10;972.80;;;;;;4898996;29;20028;-96
2022/02/11 11:36:15;;;;;;;18.45;5.57;;;563.30;1024.00;;;;;;4906843;29;20459;-95
2022/02/11 11:38:45;;;;;;;13.50;5.35;;;563.50;998.40;;;;;;4841282;29;20038;-92
2022/02/11 11:41:19;;;;;;;13.63;4.72;;;563.70;998.40;;;;;;4839156;29;20022;-91
2022/02/11 11:43:52;;;;;;;14.60;5.22;;;538.20;1049.60;;;;;;4816286;29;20092;-95
2022/02/11 11:46:51;;;;;;;13.95;5.00;;;487.30;1100.80;;;;;;4846052;29;20018;-96
2022/02/11 11:49:26;;;;;;;10.65;4.78;;;;;;;;;;4838552;29;20056;-95
2022/02/11 11:52:13;;;;;;;11.05;4.13;;;461.50;1203.20;;;;;;4826473;29;20063;-96
2022/02/11 11:55:22;;;;;;;16.48;6.22;;;461.20;1254.40;;;;;;4818263;29;20022;-96
2022/02/11 11:57:49;;;;;;;10.95;3.97;;;461.00;1228.80;;;;;;4764456;30;20096;-96
2022/02/11 12:00:38;;;;;;;29.17;9.98;;;460.90;1254.40;;;;;;4766811;30;20041;-96
2022/02/11 12:03:04;;;;;;;13.73;4.10;;;436.00;1484.80;;;;;;4789098;30;20038;-96
2022/02/11 12:06:20;;;;;;;13.95;4.88;;;436.00;1254.40;;;;;;4778573;30;20048;-96
2022/02/11 12:09:19;;;;;;;14.30;5.45;;;436.00;1254.40;;;;;;4808767;29;20095;-93
2022/02/11 12:12:24;;;;;;;10.48;4.85;;;436.00;1280.00;;;;;;4754026;30;20068;-96
2022/02/11 12:15:18;;;;;;;31.13;10.93;;;436.00;1254.40;;;;;;4754396;30;20071;-96
2022/02/11 12:17:44;;;;;;;18.60;7.35;;;435.90;1228.80;;;;;;4772972;29;20036;-95
2022/02/11 12:20:10;;;;;;;13.25;4.43;;;435.90;1228.80;;;;;;4772929;30;20040;-96
2022/02/11 12:22:36;;;;;;;7.90;4.00;;;435.90;1228.80;;;;;;4764225;30;20040;-95
2022/02/11 12:27:49;;;;;;;22.05;9.82;;;460.90;1254.40;;;;;;4778113;30;20071;-86
2022/02/11 12:30:25;;;;;;;20.85;8.48;;;461.10;1203.20;;;;;;4757743;30;20055;-93
2022/02/11 12:32:58;;;;;;;27.90;15.40;;;461.30;1228.80;;;;;;4774661;30;20069;-93
2022/02/11 12:35:50;;;;;;;16.88;6.72;;;461.20;1254.40;;;;;;4853411;29;20050;-95
2022/02/11 12:38:36;;;;;;;9.05;4.72;;;461.20;1228.80;;;;;;4882389;29;20093;-95
2022/02/11 12:41:22;;;;;;;15.45;7.82;;;461.60;1152.00;;;;;;4893783;23;20062;-93
2022/02/11 12:44:49;;;;;;;19.08;8.57;;;487.20;1126.40;;;;;;4923399;29;20048;-93
2022/02/11 12:47:52;;;;;;;12.10;5.82;;;512.90;1024.00;;;;;;4940317;29;20017;-94
2022/02/11 12:50:53;;;;;;;10.90;5.03;;;;;;;;;;4921979;29;20511;-93
2022/02/11 12:53:52;;;;;;;8.27;4.53;;;588.80;972.80;;;;;;4873976;29;20024;-93
2022/02/11 12:56:21;;;;;;;12.45;5.50;;;589.40;947.20;;;;;;4866615;29;20086;-96
2022/02/11 12:59:09;;;;;;;11.18;4.50;;;614.90;896.00;;;;;;4874722;29;20047;-96
2022/02/11 13:01:35;;;;;;;15.07;4.75;;;717.20;768.00;;;;;;4854907;29;20049;-96
2022/02/11 13:04:03;;;;;;;16.17;4.40;;;742.40;768.00;;;;;;4868205;29;20025;-96
2022/02/11 13:06:38;;;;;;;10.57;4.80;;;665.60;793.60;;;;;;4860079;29;20071;-96
2022/02/11 13:09:22;;;;;;;38.15;23.98;;;614.40;870.40;;;;;;4866576;29;20125;-93
2022/02/11 13:12:08;;;;;;;37.30;22.05;;;;;;;;;;4883850;29;20025;-93
2022/02/11 13:14:55;;;;;;;11.50;4.30;;;;;;;;;;4859681;29;20032;-96
2022/02/11 13:17:46;;;;;;;16.40;5.55;;;;;;;;;;4883488;29;20021;-94
2022/02/11 13:21:17;;;;;;;13.05;4.32;;;461.50;1126.40;;;;;;4864067;29;20038;-96
2022/02/11 13:24:22;;;;;;;10.25;4.13;;;589.20;947.20;;;;;;4878289;29;20089;-96
2022/02/11 13:26:51;;;;;;;9.27;4.35;;;666.30;768.00;;;;;;4866799;29;20025;-96
2022/02/11 13:29:18;;;;;;;12.80;5.57;;;691.70;742.40;;;;;;4882563;29;20036;-96
2022/02/11 13:31:50;;;;;;;12.85;5.53;;;691.40;742.40;;;;;;4935752;29;20042;-96
2022/02/11 13:34:20;;;;;;;10.10;4.82;;;691.50;742.40;;;;;;4918164;29;20087;-96
2022/02/11 13:36:48;;;;;;;8.88;4.35;;;742.60;742.40;;;;;;4913186;29;20040;-96
2022/02/11 13:39:31;;;;;;;10.30;4.82;;;768.50;691.20;;;;;;4916736;29;20057;-96
2022/02/11 13:41:58;;;;;;;7.22;3.55;;;768.70;665.60;;;;;;4926099;29;20480;-96
2022/02/11 13:44:24;;;;;;;10.23;5.10;;;794.10;665.60;;;;;;4938893;29;20024;-96
2022/02/11 13:46:54;;;;;;;11.95;5.80;;;794.30;665.60;;;;;;4939366;29;20031;-96
2022/02/11 13:49:24;;;;;;;12.63;5.88;;;820.00;614.40;;;;;;4937295;29;20028;-96
2022/02/11 13:55:09;;;;;;;15.30;8.35;;;768.00;665.60;;;;;;4954274;29;20088;-96
2022/02/11 13:58:26;;;;;;;8.95;3.60;;;640.90;716.80;;;;;;4967600;23;20071;-96
2022/02/11 14:01:26;;;;;;;20.08;7.40;;;;;;;;;;4961013;29;20016;-96
2022/02/11 14:04:04;;;;;;;12.73;7.25;;;563.30;947.20;;;;;;4955866;29;20024;-96
2022/02/11 14:07:08;;;;;;;12.60;5.95;;;512.90;972.80;;;;;;4945703;29;20040;-94
2022/02/11 14:09:56;;;;;;;16.65;5.93;;;512.20;1049.60;;;;;;4945075;29;20012;-96
2022/02/11 14:12:32;;;;;;;17.38;10.50;;;487.00;1049.60;;;;;;4945171;29;20027;-96
2022/02/11 14:15:41;;;;;;;17.15;8.95;;;461.70;1100.80;;;;;;4962613;29;20031;-93
2022/02/11 14:18:54;;;;;;;11.73;5.28;;;461.30;1152.00;;;;;;4962210;29;20076;-91
2022/02/11 14:21:30;;;;;;;12.10;5.78;;;460.90;1152.00;;;;;;5012905;23;20060;-96
2022/02/11 14:23:57;;;;;;;13.77;5.53;;;;;;;;;;4896401;29;20084;-96
2022/02/11 14:26:26;;;;;;;16.63;5.90;;;;;;;;;;4908432;29;20028;-91
2022/02/11 14:28:53;;;;;;;15.38;6.65;;;;;;;;;;4909150;29;20052;-93
2022/02/11 14:31:54;;;;;;;17.98;7.20;;;435.60;1152.00;;;;;;4934409;23;20051;-92
2022/02/11 14:34:25;;;;;;;33.55;16.80;;;435.50;1152.00;;;;;;4958652;28;20039;-93
2022/02/11 14:36:56;;;;;;;22.85;10.25;;;435.30;1177.60;;;;;;4935726;29;20036;-92
2022/02/11 14:39:48;;;;;;;20.25;8.32;;;410.50;1254.40;;;;;;4953361;23;20230;-92
2022/02/11 14:42:17;;;;;;;17.42;7.57;;;410.10;1305.60;;;;;;4930522;29;20036;-93
2022/02/11 14:44:43;;;;;;;30.52;13.38;;;410.00;1305.60;;;;;;4926410;29;20620;-92
2022/02/11 14:47:26;;;;;;;35.08;13.25;;;409.90;1356.80;;;;;;4943295;29;20012;-90
2022/02/11 14:49:57;;;;;;;17.90;7.70;;;409.80;1356.80;;;;;;4943900;29;20012;-93
2022/02/11 14:52:22;;;;;;;20.38;7.00;;;409.60;1382.40;;;;;;4927924;29;20028;-93
2022/02/11 14:54:54;;;;;;;22.88;10.40;;;384.90;1382.40;;;;;;4922851;29;20032;-91
2022/02/11 14:57:37;;;;;;;19.83;8.73;;;384.80;1382.40;;;;;;4941459;29;20012;-91
2022/02/11 15:00:19;;;;;;;25.50;10.65;;;384.60;1408.00;;;;;;4926220;29;20033;-92
2022/02/11 15:03:28;;;;;;;24.20;11.32;;;384.50;1459.20;;;;;;4941148;29;20008;-93
2022/02/11 15:06:13;;;;;;;24.60;11.63;;;384.40;1433.60;;;;;;4954182;28;20019;-92
2022/02/11 15:09:01;;;;;;;23.60;10.65;;;384.40;1459.20;;;;;;4935440;23;20044;-93
2022/02/11 15:11:45;;;;;;;24.02;10.18;;;384.30;1459.20;;;;;;4941812;29;20032;-93
2022/02/11 15:14:26;;;;;;;34.78;15.18;;;384.10;1536.00;;;;;;4939662;29;20040;-92
2022/02/11 15:16:53;;;;;;;41.47;19.73;;;384.20;1484.80;;;;;;4902950;29;20036;-93
2022/02/11 15:19:19;;;;;;;83.85;41.35;;;384.10;1510.40;;;;;;4903014;29;20035;-94
2022/02/11 15:21:46;;;;;;;78.35;38.92;;;384.10;1510.40;;;;;;4901945;29;20493;-93
2022/02/11 15:24:12;;;;;;;57.40;28.27;;;384.00;1510.40;;;;;;4902436;29;20032;-93
2022/02/11 15:26:39;;;;;;;44.40;24.30;;;384.00;1510.40;;;;;;4902008;29;20337;-93
2022/02/11 15:29:05;;;;;;;46.17;20.50;;;384.00;1510.40;;;;;;4899041;29;20024;-94
2022/02/11 15:31:32;;;;;;;21.67;13.82;;;359.20;1561.60;;;;;;4901715;29;20024;-93
2022/02/11 15:33:58;;;;;;;29.60;15.15;;;359.10;1587.20;;;;;;4903542;29;20405;-94
2022/02/11 15:36:24;;;;;;;19.98;10.20;;;359.10;1587.20;;;;;;4902661;29;20040;-95
2022/02/11 15:38:51;;;;;;;23.67;9.88;;;359.00;1587.20;;;;;;4905915;29;20024;-96
2022/02/11 15:41:17;;;;;;;43.28;14.98;;;358.90;1612.80;;;;;;4901538;29;20568;-94
2022/02/11 15:43:43;;;;;;;43.83;14.23;;;358.80;1612.80;;;;;;4899302;29;20499;-93
2022/02/11 15:46:10;;;;;;;36.05;12.48;;;358.60;1612.80;;;;;;4903829;29;20028;-93
2022/02/11 15:48:39;;;;;;;27.27;11.00;;;358.70;1638.40;;;;;;4903623;29;20516;-93
2022/02/11 15:51:10;;;;;;;51.13;19.35;;;358.70;1638.40;;;;;;4900154;29;20378;-93
2022/02/11 15:53:36;;;;;;;164.60;77.95;;;358.60;1638.40;;;;;;4902254;29;20504;-91
2022/02/11 15:56:04;;;;;;;437.33;265.70;;;358.60;1638.40;;;;;;4902457;29;20044;-93
2022/02/11 15:58:30;;;;;;;321.67;212.50;;;358.60;1664.00;;;;;;4901921;29;20123;-94
2022/02/11 16:00:56;;;;;;;70.32;45.75;;;358.60;1638.40;;;;;;4902342;29;20032;-93
2022/02/11 16:03:24;;;;;;;28.27;12.45;;;358.60;1638.40;;;;;;4902026;29;20024;-94
2022/02/11 16:05:52;;;;;;;32.38;15.90;;;358.50;1664.00;;;;;;4901918;29;20039;-93
2022/02/11 16:08:18;;;;;;;31.75;17.55;;;358.50;1664.00;;;;;;4896761;29;20028;-94
2022/02/11 16:10:44;;;;;;;40.72;20.08;;;358.50;1664.00;;;;;;4903182;29;20503;-94
2022/02/11 16:13:10;;;;;;;55.28;22.95;;;358.50;1664.00;;;;;;4902414;29;20028;-93
2022/02/11 16:15:36;;;;;;;66.32;28.02;;;358.50;1664.00;;;;;;4901918;29;20036;-93
2022/02/11 16:18:05;;;;;;;37.53;18.77;;;358.50;1664.00;;;;;;4902446;29;20036;-93
2022/02/11 16:20:39;;;;;;;29.10;16.35;;;358.50;1664.00;;;;;;4902640;29;20057;-94
2022/02/11 16:23:07;;;;;;;23.08;12.60;;;358.40;1664.00;;;;;;4903315;29;20055;-94
2022/02/11 16:25:40;;;;;;;22.15;10.32;;;333.70;1689.60;;;;;;4902945;29;20064;-95
2022/02/11 16:28:07;;;;;;;17.35;8.77;;;;;;;;;;4896355;29;20108;-93
2022/02/11 16:30:34;;;;;;;16.02;8.55;;;;;;;;;;4899966;29;20060;-93
2022/02/11 16:33:00;;;;;;;21.10;9.48;;;;;;;;;;4902173;29;20039;-93
2022/02/11 16:35:26;;;;;;;26.58;12.88;;;;;;;;;;4900317;29;20048;-93
2022/02/11 16:37:52;;;;;;;22.67;10.27;;;;;;;;;;4900775;29;20461;-92
2022/02/11 16:40:18;;;;;;;20.30;10.02;;;;;;;;;;4901068;29;20497;-94
2022/02/11 16:42:45;;;;;;;22.27;8.85;;;;;;;;;;4901394;29;20039;-94
2022/02/11 16:45:11;;;;;;;19.77;7.63;;;;;;;;;;4902280;29;20816;-95
2022/02/11 16:47:38;;;;;;;16.55;8.27;;;;;;;;;;4899613;29;20092;-94
2022/02/11 16:50:06;;;;;;;15.05;8.20;;;;;;;;;;4901614;29;20036;-94
2022/02/11 16:52:33;;;;;;;60.80;33.30;;;;;;;;;;4901164;29;20477;-95
2022/02/11 16:55:04;;;;;;;86.20;49.72;;;;;;;;;;4922631;29;20039;-94
2022/02/11 16:57:30;;;;;;;84.60;51.10;;;;;;;;;;4901535;29;20032;-93
2022/02/11 16:59:57;;;;;;;67.57;41.92;;;;;;;;;;4901267;29;20468;-93
2022/02/11 17:02:23;;;;;;;73.90;42.60;;;;;;;;;;4909937;29;20545;-95
2022/02/11 17:04:49;;;;;;;61.13;33.47;;;;;;;;;;4898638;29;20108;-94
2022/02/11 17:07:18;;;;;;;53.58;26.05;;;;;;;;;;4903592;29;20024;-93
2022/02/11 17:09:46;;;;;;;52.95;24.00;;;;;;;;;;4908485;29;20144;-94
2022/02/11 17:12:12;;;;;;;41.03;19.08;;;333.40;1664.00;;;;;;4902976;29;20055;-93
2022/02/11 17:14:38;;;;;;;45.78;21.92;;;333.20;1689.60;;;;;;4901300;29;20036;-94
2022/02/11 17:17:05;;;;;;;48.75;21.95;;;333.10;1689.60;;;;;;4900731;29;20044;-93
2022/02/11 17:19:31;;;;;;;21.83;10.05;;;333.20;1715.20;;;;;;4901016;29;20485;-91
2022/02/11 17:21:57;;;;;;;14.75;8.02;;;333.00;1715.20;;;;;;4901041;29;20036;-95
2022/02/11 17:24:23;;;;;;;15.07;6.10;;;332.90;1740.80;;;;;;4917710;29;20032;-93
2022/02/11 17:26:49;;;;;;;15.43;6.07;;;332.90;1740.80;;;;;;4917688;29;20160;-91
2022/02/11 17:29:15;;;;;;;16.08;7.15;;;332.80;1766.40;;;;;;4908141;29;20040;-95
2022/02/11 17:31:41;;;;;;;23.77;11.52;;;332.80;1792.00;;;;;;4920468;29;20501;-93
2022/02/11 17:34:08;;;;;;;25.92;14.05;;;308.10;1766.40;;;;;;4900891;29;20036;-92
2022/02/11 17:36:35;;;;;;;21.25;8.73;;;308.00;1792.00;;;;;;4900148;29;20428;-90
2022/02/11 17:39:02;;;;;;;26.73;15.98;;;308.00;1792.00;;;;;;4900941;29;20035;-92
2022/02/11 17:41:28;;;;;;;18.45;9.05;;;307.90;1817.60;;;;;;4911415;29;20043;-93
2022/02/11 17:43:54;;;;;;;30.63;10.95;;;307.80;1843.20;;;;;;4908691;29;20044;-92
2022/02/11 17:46:26;;;;;;;39.83;18.60;;;307.80;1843.20;;;;;;4900479;29;20084;-90
2022/02/11 17:48:53;;;;;;;24.48;15.02;;;307.60;1894.40;;;;;;4900930;29;20462;-96
2022/02/11 17:51:40;;;;;;;14.05;8.27;;;307.50;1920.00;;;;;;4913811;29;20091;-94
2022/02/11 17:54:06;;;;;;;20.70;9.50;;;307.40;1920.00;;;;;;4941065;28;20020;-95
2022/02/11 17:56:32;;;;;;;26.02;13.57;;;307.40;1945.60;;;;;;4909156;29;20032;-95
2022/02/11 17:58:58;;;;;;;36.88;16.10;;;307.40;1971.20;;;;;;4907016;29;20032;-96
2022/02/11 18:01:24;;;;;;;51.20;15.07;;;307.40;1971.20;;;;;;4929410;29;20375;-94
2022/02/11 18:03:53;;;;;;;38.75;14.20;;;307.30;1920.00;;;;;;4924218;29;20497;-95
2022/02/11 18:06:19;;;;;;;24.92;10.68;;;307.20;1920.00;;;;;;4936245;23;20051;-94
2022/02/11 18:08:58;;;;;;;18.45;9.00;;;282.50;1920.00;;;;;;4909808;29;20056;-96
2022/02/11 18:11:35;;;;;;;19.77;8.23;;;282.40;1920.00;;;;;;4929592;29;20481;-94
2022/02/11 18:14:03;;;;;;;45.35;18.80;;;282.20;1945.60;;;;;;4908801;29;20024;-92
2022/02/11 18:16:29;;;;;;;16.08;9.02;;;282.20;1996.80;;;;;;4908561;29;20036;-93
2022/02/11 18:18:57;;;;;;;17.40;9.43;;;282.10;1996.80;;;;;;4905124;29;20024;-94
2022/02/11 18:21:22;;;;;;;13.25;7.93;;;282.10;1996.80;;;;;;4904094;29;20028;-93
2022/02/11 18:23:49;;;;;;;20.98;8.00;;;282.10;2022.40;;;;;;4903290;29;20437;-93
2022/02/11 18:26:17;;;;;;;16.30;8.98;;;282.00;2048.00;;;;;;4904657;29;20024;-93
2022/02/11 18:28:47;;;;;;;19.38;6.25;;;282.10;2073.60;;;;;;4907289;29;20032;-94
2022/02/11 18:31:13;;;;;;;13.52;7.00;;;282.00;2048.00;;;;;;4908009;29;20051;-94
2022/02/11 18:33:39;;;;;;;17.13;7.57;;;281.90;2048.00;;;;;;4924478;29;20035;-93
2022/02/11 18:36:05;;;;;;;14.35;8.55;;;281.90;2073.60;;;;;;4926210;29;20050;-95
2022/02/11 18:38:43;;;;;;;60.08;32.90;;;256.80;2048.00;;;;;;4927829;29;20020;-94
2022/02/11 18:41:09;;;;;;;48.42;26.25;;;281.90;2073.60;;;;;;4928949;29;20031;-93
2022/02/11 18:43:36;;;;;;;73.30;29.95;;;281.90;2099.20;;;;;;4923200;29;20380;-93
2022/02/11 18:46:02;;;;;;;134.02;44.47;;;281.80;2073.60;;;;;;4923511;29;20023;-94
2022/02/11 18:48:31;;;;;;;39.42;23.80;;;281.80;2099.20;;;;;;4924499;29;20031;-94
2022/02/11 18:50:59;;;;;;;22.23;13.27;;;281.70;2150.40;;;;;;4923158;29;20047;-94
2022/02/11 18:53:25;;;;;;;21.92;12.85;;;281.70;2099.20;;;;;;4925892;29;20123;-93
2022/02/11 18:55:52;;;;;;;15.00;9.35;;;281.80;2073.60;;;;;;4908815;29;20067;-93
2022/02/11 18:58:18;;;;;;;22.17;14.55;;;281.70;2022.40;;;;;;4923333;29;20024;-93
2022/02/11 19:00:44;;;;;;;32.55;20.92;;;281.70;2022.40;;;;;;4923038;29;20469;-93
2022/02/11 19:03:10;;;;;;;118.70;45.38;;;281.60;2073.60;;;;;;4922606;29;20035;-92
2022/02/11 19:05:50;;;;;;;117.63;46.63;;;281.60;2099.20;;;;;;4925372;29;20087;-94
2022/02/11 19:08:16;;;;;;;19.40;14.07;;;281.60;2124.80;;;;;;4924010;29;20063;-94
2022/02/11 19:10:42;;;;;;;33.35;20.33;;;256.90;2073.60;;;;;;4925610;29;20520;-93
2022/02/11 19:13:08;;;;;;;64.45;23.23;;;256.90;2022.40;;;;;;4922358;29;20031;-94
2022/02/11 19:15:34;;;;;;;55.33;22.15;;;256.80;1996.80;;;;;;4922622;29;20036;-93
2022/02/11 19:18:00;;;;;;;104.85;30.13;;;256.70;1996.80;;;;;;4922735;29;20027;-93
2022/02/11 19:20:28;;;;;;;33.25;17.40;;;256.70;1996.80;;;;;;4922438;29;20473;-94
2022/02/11 19:22:54;;;;;;;18.13;12.27;;;256.70;1971.20;;;;;;4922224;29;20476;-93
2022/02/11 19:25:22;;;;;;;14.48;7.90;;;256.70;1971.20;;;;;;4924008;29;20032;-93
2022/02/11 19:27:48;;;;;;;16.23;7.63;;;256.60;1971.20;;;;;;4923850;29;20020;-94
2022/02/11 19:30:15;;;;;;;11.95;7.22;;;256.60;1945.60;;;;;;4924236;29;20515;-94
2022/02/11 19:32:41;;;;;;;9.93;5.20;;;256.60;1971.20;;;;;;4923801;29;20038;-94
2022/02/11 19:35:09;;;;;;;10.63;4.38;;;256.50;1945.60;;;;;;4926313;29;20035;-94
2022/02/11 19:37:44;;;;;;;7.38;3.55;;;256.50;1945.60;;;;;;4945346;29;20027;-94
2022/02/11 19:40:11;;;;;;;8.18;3.75;;;256.50;1945.60;;;;;;4923897;29;20454;-94
2022/02/11 19:42:37;;;;;;;8.48;3.40;;;231.20;1920.00;;;;;;4924364;29;20489;-94
2022/02/11 19:45:05;;;;;;;6.68;3.80;;;256.50;1920.00;;;;;;4923450;29;20028;-92
2022/02/11 19:47:38;;;;;;;6.72;3.10;;;256.30;1920.00;;;;;;4904948;29;20028;-94
2022/02/11 19:50:05;;;;;;;10.55;3.17;;;256.20;1945.60;;;;;;4903340;29;20508;-92
2022/02/11 19:52:31;;;;;;;6.20;2.72;;;256.30;1945.60;;;;;;4904264;29;20040;-92
2022/02/11 19:54:57;;;;;;;7.40;3.65;;;256.20;1971.20;;;;;;4904213;29;20036;-92
2022/02/11 19:57:25;;;;;;;11.40;3.30;;;256.20;1945.60;;;;;;4905013;29;20031;-93
2022/02/11 19:59:52;;;;;;;9.48;3.10;;;256.10;1971.20;;;;;;4905926;29;20024;-93
2022/02/11 20:02:24;;;;;;;5.80;3.25;;;256.10;1996.80;;;;;;4902921;29;20080;-93
2022/02/11 20:04:50;;;;;;;5.07;3.10;;;256.00;1996.80;;;;;;4904419;29;20120;-93
2022/02/11 20:07:16;;;;;;;9.15;3.05;;;256.00;1996.80;;;;;;4905797;29;20080;-92
2022/02/11 20:09:42;;;;;;;5.85;3.15;;;256.00;1996.80;;;;;;4904453;29;20024;-92
2022/02/11 20:12:08;;;;;;;11.35;3.05;;;231.20;2022.40;;;;;;4905285;29;20115;-91
2022/02/11 20:17:28;;;;;;;6.65;2.70;;;231.20;1945.60;;;;;;4978250;23;20067;-91
